createdAt,value
2019-01-29T00:02:14.097Z,5.57
2019-01-29T00:04:42.543Z,5.10
2019-01-29T00:07:11.061Z,4.70
2019-01-29T00:09:39.173Z,5.20
2019-01-29T00:12:07.643Z,4.40
2019-01-29T00:14:35.715Z,5.10
2019-01-29T00:17:04.061Z,5.13
2019-01-29T00:19:32.472Z,4.10
2019-01-29T00:22:00.984Z,4.10
2019-01-29T00:24:29.090Z,3.83
2019-01-29T00:26:57.884Z,4.30
2019-01-29T00:29:26.356Z,3.50
2019-01-29T00:31:54.771Z,3.20
2019-01-29T00:34:23.254Z,4.00
2019-01-29T00:36:51.692Z,3.60
2019-01-29T00:39:20.141Z,3.43
2019-01-29T00:41:48.840Z,4.13
2019-01-29T00:44:17.269Z,4.30
2019-01-29T00:46:45.687Z,3.93
2019-01-29T00:49:14.099Z,4.50
2019-01-29T00:51:42.522Z,4.67
2019-01-29T00:54:11.247Z,4.10
2019-01-29T00:56:39.748Z,3.77
2019-01-29T00:59:08.155Z,3.90
2019-01-29T01:01:36.586Z,3.80
2019-01-29T01:04:05.231Z,4.27
2019-01-29T01:06:33.648Z,4.30
2019-01-29T01:09:02.077Z,4.87
2019-01-29T01:11:30.496Z,4.75
2019-01-29T01:13:58.915Z,4.87
2019-01-29T01:16:27.338Z,4.77
2019-01-29T01:18:55.777Z,5.03
2019-01-29T01:21:24.549Z,3.97
2019-01-29T01:23:52.975Z,3.90
2019-01-29T01:26:21.408Z,4.47
2019-01-29T01:28:49.835Z,4.30
2019-01-29T01:31:18.428Z,4.37
2019-01-29T01:33:46.849Z,4.05
2019-01-29T01:36:15.273Z,3.98
2019-01-29T01:38:44.016Z,4.10
2019-01-29T01:41:12.429Z,4.13
2019-01-29T01:43:40.857Z,4.10
2019-01-29T01:46:09.277Z,4.03
2019-01-29T01:48:37.705Z,3.90
2019-01-29T01:51:06.128Z,4.03
2019-01-29T01:53:34.567Z,3.40
2019-01-29T01:56:02.976Z,3.62
2019-01-29T01:58:31.659Z,3.10
2019-01-29T02:01:00.072Z,3.17
2019-01-29T02:03:28.513Z,3.10
2019-01-29T02:05:57.097Z,3.10
2019-01-29T02:08:25.538Z,3.05
2019-01-29T02:10:54.270Z,3.92
2019-01-29T02:13:22.693Z,3.03
2019-01-29T02:15:51.103Z,3.03
2019-01-29T02:18:19.527Z,3.40
2019-01-29T02:20:48.311Z,3.83
2019-01-29T02:23:16.731Z,4.22
2019-01-29T02:25:45.164Z,3.72
2019-01-29T02:28:13.595Z,4.90
2019-01-29T02:30:42.020Z,3.97
2019-01-29T02:33:10.475Z,3.23
2019-01-29T02:35:38.896Z,3.42
2019-01-29T02:38:07.336Z,3.50
2019-01-29T02:40:35.831Z,3.83
2019-01-29T02:43:04.340Z,3.57
2019-01-29T02:45:32.749Z,3.40
2019-01-29T02:48:01.173Z,3.10
2019-01-29T02:50:29.971Z,3.53
2019-01-29T02:52:58.392Z,3.40
2019-01-29T02:55:26.808Z,3.50
2019-01-29T02:57:55.234Z,4.13
2019-01-29T03:00:26.291Z,3.97
2019-01-29T03:02:54.985Z,4.07
2019-01-29T03:05:23.849Z,4.13
2019-01-29T03:07:52.718Z,3.45
2019-01-29T03:10:25.866Z,3.37
2019-01-29T03:12:54.364Z,4.07
2019-01-29T03:15:28.656Z,3.65
2019-01-29T03:17:57.153Z,4.37
2019-01-29T03:20:28.357Z,3.47
2019-01-29T03:22:56.801Z,3.27
2019-01-29T03:25:25.316Z,2.75
2019-01-29T03:27:54.084Z,2.67
2019-01-29T03:30:23.035Z,2.97
2019-01-29T03:32:51.469Z,2.92
2019-01-29T03:35:19.881Z,3.05
2019-01-29T03:37:48.376Z,3.92
2019-01-29T03:40:20.235Z,3.70
2019-01-29T03:42:48.660Z,3.83
2019-01-29T03:45:20.557Z,4.40
2019-01-29T03:47:49.039Z,4.08
2019-01-29T03:50:22.065Z,4.90
2019-01-29T03:52:50.557Z,4.70
2019-01-29T03:55:19.318Z,5.35
2019-01-29T03:57:47.760Z,5.25
2019-01-29T04:00:19.133Z,4.42
2019-01-29T04:02:47.548Z,4.60
2019-01-29T04:05:17.028Z,4.10
2019-01-29T04:07:45.520Z,4.40
2019-01-29T04:10:16.249Z,3.40
2019-01-29T04:12:45.518Z,3.50
2019-01-29T04:15:16.577Z,3.40
2019-01-29T04:17:45.068Z,3.58
2019-01-29T04:20:20.429Z,4.12
2019-01-29T04:22:48.930Z,4.75
2019-01-29T04:25:17.904Z,4.47
2019-01-29T04:27:46.396Z,5.00
2019-01-29T04:30:19.887Z,4.80
2019-01-29T04:32:48.392Z,4.83
2019-01-29T04:35:16.888Z,5.10
2019-01-29T04:37:45.308Z,4.47
2019-01-29T04:40:15.679Z,4.95
2019-01-29T04:42:44.101Z,5.35
2019-01-29T04:45:14.279Z,5.00
2019-01-29T04:47:42.776Z,3.42
2019-01-29T04:50:13.903Z,4.20
2019-01-29T04:52:42.389Z,4.83
2019-01-29T04:55:13.458Z,4.25
2019-01-29T04:57:41.880Z,4.45
2019-01-29T05:00:18.153Z,4.67
2019-01-29T05:02:46.570Z,5.30
2019-01-29T05:05:15.272Z,5.42
2019-01-29T05:07:43.682Z,5.12
2019-01-29T05:10:17.375Z,5.55
2019-01-29T05:12:46.096Z,5.10
2019-01-29T05:15:16.770Z,5.03
2019-01-29T05:17:45.200Z,5.30
2019-01-29T05:20:15.864Z,5.05
2019-01-29T05:22:44.281Z,5.22
2019-01-29T05:25:12.776Z,5.28
2019-01-29T05:27:41.370Z,5.95
2019-01-29T05:30:21.347Z,5.03
2019-01-29T05:32:49.906Z,5.62
2019-01-29T05:35:18.569Z,4.97
2019-01-29T05:37:47.065Z,5.60
2019-01-29T05:40:20.981Z,5.97
2019-01-29T05:42:49.483Z,5.37
2019-01-29T05:45:19.652Z,4.17
2019-01-29T05:47:48.091Z,4.92
2019-01-29T05:50:16.786Z,5.83
2019-01-29T05:52:45.252Z,6.22
2019-01-29T05:55:15.228Z,6.03
2019-01-29T05:57:43.716Z,6.17
2019-01-29T06:00:15.726Z,6.72
2019-01-29T06:02:44.153Z,6.00
2019-01-29T06:05:14.210Z,5.78
2019-01-29T06:07:42.631Z,6.20
2019-01-29T06:10:14.110Z,5.75
2019-01-29T06:12:42.537Z,5.53
2019-01-29T06:15:36.280Z,6.03
2019-01-29T06:18:04.894Z,5.30
2019-01-29T06:20:33.332Z,5.40
2019-01-29T06:23:01.761Z,5.58
2019-01-29T06:25:30.198Z,6.22
2019-01-29T06:27:58.633Z,5.77
2019-01-29T06:30:27.196Z,6.00
2019-01-29T06:32:55.624Z,6.05
2019-01-29T06:35:24.138Z,6.12
2019-01-29T06:37:52.630Z,5.87
2019-01-29T06:40:23.308Z,6.30
2019-01-29T06:42:51.733Z,5.80
2019-01-29T06:45:21.996Z,6.20
2019-01-29T06:47:50.587Z,6.47
2019-01-29T06:50:20.988Z,6.40
2019-01-29T06:52:49.761Z,7.17
2019-01-29T06:55:20.030Z,7.00
2019-01-29T06:57:54.982Z,6.57
2019-01-29T07:00:21.338Z,6.60
2019-01-29T07:02:50.028Z,7.35
2019-01-29T07:05:18.509Z,6.90
2019-01-29T07:07:46.957Z,7.33
2019-01-29T07:10:17.724Z,6.55
2019-01-29T07:12:46.157Z,7.35
2019-01-29T07:15:35.216Z,6.92
2019-01-29T07:18:05.725Z,6.87
2019-01-29T07:20:34.157Z,7.33
2019-01-29T07:23:02.585Z,7.57
2019-01-29T07:25:31.016Z,7.12
2019-01-29T07:27:59.440Z,6.47
2019-01-29T07:30:27.864Z,6.90
2019-01-29T07:32:56.575Z,6.03
2019-01-29T07:35:24.994Z,7.13
2019-01-29T07:37:53.423Z,8.57
2019-01-29T07:40:21.837Z,10.20
2019-01-29T07:42:50.268Z,8.50
2019-01-29T07:45:18.824Z,7.80
2019-01-29T07:47:47.269Z,8.33
2019-01-29T07:50:15.689Z,7.80
2019-01-29T07:52:44.124Z,7.75
2019-01-29T07:55:12.684Z,7.45
2019-01-29T07:57:41.117Z,7.90
2019-01-29T08:00:16.564Z,7.30
2019-01-29T08:02:45.000Z,8.77
2019-01-29T08:05:13.412Z,8.20
2019-01-29T08:07:42.118Z,7.62
2019-01-29T08:10:16.097Z,7.80
2019-01-29T08:12:44.514Z,6.50
2019-01-29T08:15:19.196Z,7.67
2019-01-29T08:17:47.896Z,6.83
2019-01-29T08:20:17.647Z,7.97
2019-01-29T08:22:46.141Z,7.80
2019-01-29T08:25:14.893Z,7.87
2019-01-29T08:27:43.376Z,6.77
2019-01-29T08:30:14.803Z,7.10
2019-01-29T08:32:43.299Z,6.60
2019-01-29T08:35:13.852Z,7.03
2019-01-29T08:37:42.580Z,8.33
2019-01-29T08:40:13.236Z,7.40
2019-01-29T08:42:41.664Z,7.73
2019-01-29T08:45:12.712Z,7.87
2019-01-29T08:47:41.148Z,7.43
2019-01-29T08:50:34.253Z,8.13
2019-01-29T08:53:02.970Z,7.30
2019-01-29T08:55:31.386Z,7.60
2019-01-29T08:58:00.131Z,7.10
2019-01-29T09:00:28.567Z,7.30
2019-01-29T09:02:56.979Z,6.37
2019-01-29T09:05:25.396Z,7.13
2019-01-29T09:07:53.808Z,7.10
2019-01-29T09:10:22.760Z,7.20
2019-01-29T09:12:51.193Z,7.53
2019-01-29T09:15:20.948Z,7.60
2019-01-29T09:17:49.644Z,7.07
2019-01-29T09:20:22.689Z,7.30
2019-01-29T09:22:51.109Z,6.67
2019-01-29T09:25:22.560Z,7.20
2019-01-29T09:27:49.738Z,7.17
2019-01-29T09:30:20.721Z,6.57
2019-01-29T09:32:49.220Z,7.10
2019-01-29T09:35:17.750Z,7.40
2019-01-29T09:37:46.228Z,7.00
2019-01-29T09:40:17.445Z,6.83
2019-01-29T09:42:46.202Z,7.30
2019-01-29T09:45:17.215Z,7.40
2019-01-29T09:47:45.697Z,6.80
2019-01-29T09:50:17.024Z,7.17
2019-01-29T09:52:45.478Z,7.77
2019-01-29T09:55:16.200Z,7.83
2019-01-29T09:57:44.608Z,8.67
2019-01-29T10:00:33.270Z,8.40
2019-01-29T10:03:01.760Z,8.50
2019-01-29T10:05:30.176Z,9.67
2019-01-29T10:07:58.648Z,8.03
2019-01-29T10:10:27.142Z,8.20
2019-01-29T10:12:55.751Z,8.80
2019-01-29T10:15:26.859Z,7.90
2019-01-29T10:17:55.341Z,8.63
2019-01-29T10:20:24.444Z,8.87
2019-01-29T10:22:52.848Z,9.33
2019-01-29T10:25:21.345Z,9.40
2019-01-29T10:27:49.757Z,8.70
2019-01-29T10:30:24.009Z,8.93
2019-01-29T10:32:52.453Z,9.03
2019-01-29T10:35:22.714Z,7.83
2019-01-29T10:37:51.116Z,8.63
2019-01-29T10:40:21.592Z,10.07
2019-01-29T10:42:50.073Z,9.70
2019-01-29T10:45:22.213Z,9.23
2019-01-29T10:47:50.700Z,8.30
2019-01-29T10:50:27.509Z,9.57
2019-01-29T10:52:56.780Z,9.33
2019-01-29T10:55:25.178Z,9.13
2019-01-29T10:57:53.983Z,8.37
2019-01-29T11:00:25.450Z,8.83
2019-01-29T11:02:53.968Z,8.70
2019-01-29T11:05:22.624Z,9.10
2019-01-29T11:07:51.112Z,8.60
2019-01-29T11:10:20.887Z,9.13
2019-01-29T11:12:49.300Z,9.20
2019-01-29T11:15:26.586Z,9.60
2019-01-29T11:17:55.251Z,8.87
2019-01-29T11:20:24.036Z,7.93
2019-01-29T11:22:52.453Z,8.43
2019-01-29T11:25:26.049Z,8.97
2019-01-29T11:27:54.471Z,8.53
2019-01-29T11:30:28.677Z,8.47
2019-01-29T11:32:57.573Z,8.80
2019-01-29T11:35:26.168Z,9.57
2019-01-29T11:37:54.724Z,8.50
2019-01-29T11:40:28.382Z,7.87
2019-01-29T11:42:56.784Z,8.37
2019-01-29T11:45:40.017Z,7.87
2019-01-29T11:48:08.429Z,7.83
2019-01-29T11:50:36.942Z,7.50
2019-01-29T11:53:05.645Z,6.53
2019-01-29T11:55:34.059Z,5.90
2019-01-29T11:58:02.789Z,4.50
2019-01-29T12:00:37.443Z,4.63
2019-01-29T12:03:25.561Z,5.33
2019-01-29T12:05:54.076Z,4.47
2019-01-29T12:08:22.556Z,4.70
2019-01-29T12:10:50.968Z,4.60
2019-01-29T12:13:19.683Z,5.00
2019-01-29T12:15:48.101Z,5.40
2019-01-29T12:18:16.609Z,5.30
2019-01-29T12:20:45.099Z,5.57
2019-01-29T12:23:13.506Z,5.17
2019-01-29T12:25:41.943Z,4.80
2019-01-29T12:28:10.664Z,5.20
2019-01-29T12:30:39.072Z,4.80
2019-01-29T12:33:08.449Z,4.67
2019-01-29T12:35:36.864Z,5.20
2019-01-29T12:38:05.417Z,4.83
2019-01-29T12:40:33.830Z,4.43
2019-01-29T12:43:02.253Z,5.47
2019-01-29T12:45:30.812Z,5.33
2019-01-29T12:47:59.221Z,4.90
2019-01-29T12:50:31.995Z,3.77
2019-01-29T12:53:03.786Z,4.20
2019-01-29T12:55:32.528Z,3.53
2019-01-29T12:58:01.012Z,3.60
2019-01-29T13:00:34.549Z,3.43
2019-01-29T13:03:02.970Z,3.80
2019-01-29T13:05:32.728Z,4.07
2019-01-29T13:08:14.041Z,3.60
2019-01-29T13:10:42.453Z,3.87
2019-01-29T13:13:11.323Z,3.57
2019-01-29T13:15:39.796Z,4.00
2019-01-29T13:18:08.222Z,3.97
2019-01-29T13:20:36.635Z,3.23
2019-01-29T13:23:05.393Z,3.30
2019-01-29T13:25:33.806Z,3.23
2019-01-29T13:28:02.229Z,3.90
2019-01-29T13:30:35.143Z,4.53
2019-01-29T13:33:06.717Z,4.50
2019-01-29T13:35:36.460Z,4.60
2019-01-29T13:38:06.432Z,5.53
2019-01-29T13:40:35.130Z,4.60
2019-01-29T13:43:03.915Z,4.33
2019-01-29T13:45:32.320Z,4.60
2019-01-29T13:48:00.745Z,4.17
2019-01-29T13:50:40.853Z,4.43
2019-01-29T13:53:09.283Z,4.70
2019-01-29T13:55:38.177Z,4.37
2019-01-29T13:58:08.345Z,4.37
2019-01-29T14:00:39.060Z,4.50
2019-01-29T14:03:09.533Z,4.10
2019-01-29T14:05:37.924Z,3.23
2019-01-29T14:08:06.687Z,2.90
2019-01-29T14:10:54.454Z,2.93
2019-01-29T14:13:22.891Z,2.37
2019-01-29T14:15:52.757Z,2.47
2019-01-29T14:18:21.460Z,3.60
2019-01-29T14:20:49.897Z,3.60
2019-01-29T14:23:18.619Z,3.70
2019-01-29T14:25:47.034Z,4.00
2019-01-29T14:28:15.444Z,3.60
2019-01-29T14:30:43.944Z,3.47
2019-01-29T14:33:12.635Z,3.30
2019-01-29T14:35:41.032Z,3.10
2019-01-29T14:38:20.838Z,3.10
2019-01-29T14:40:49.249Z,3.07
2019-01-29T14:43:44.378Z,2.93
2019-01-29T14:46:12.865Z,2.90
2019-01-29T14:48:41.296Z,2.83
2019-01-29T14:51:09.777Z,3.00
2019-01-29T14:53:38.190Z,3.37
2019-01-29T14:56:06.596Z,3.03
2019-01-29T14:58:35.103Z,3.40
2019-01-29T15:01:04.184Z,3.33
2019-01-29T15:03:32.597Z,4.00
2019-01-29T15:06:01.015Z,3.13
2019-01-29T15:08:29.507Z,3.50
2019-01-29T15:10:58.274Z,2.93
2019-01-29T15:13:26.969Z,3.73
2019-01-29T15:16:05.873Z,3.53
2019-01-29T15:18:35.925Z,3.57
2019-01-29T15:21:04.341Z,3.47
2019-01-29T15:23:32.780Z,3.70
2019-01-29T15:26:01.187Z,3.23
2019-01-29T15:28:29.611Z,3.65
2019-01-29T15:30:58.306Z,3.97
2019-01-29T15:33:26.734Z,3.40
2019-01-29T15:35:55.151Z,2.93
2019-01-29T15:38:23.566Z,4.13
2019-01-29T15:40:51.999Z,4.00
2019-01-29T15:43:20.403Z,3.77
2019-01-29T15:45:48.829Z,3.50
2019-01-29T15:48:17.313Z,4.03
2019-01-29T15:50:45.733Z,3.93
2019-01-29T15:53:14.283Z,3.80
2019-01-29T15:55:42.706Z,4.73
2019-01-29T15:58:11.280Z,4.07
2019-01-29T16:00:40.752Z,3.60
2019-01-29T16:03:09.228Z,3.50
2019-01-29T16:05:39.784Z,4.37
2019-01-29T16:08:13.052Z,4.03
2019-01-29T16:10:43.020Z,6.03
2019-01-29T16:13:11.572Z,5.93
2019-01-29T16:15:40.645Z,7.00
2019-01-29T16:18:09.197Z,5.63
2019-01-29T16:20:37.769Z,3.90
2019-01-29T16:23:07.159Z,6.37
2019-01-29T16:25:36.430Z,4.30
2019-01-29T16:28:05.021Z,5.03
2019-01-29T16:30:38.057Z,7.47
2019-01-29T16:33:06.717Z,5.10
2019-01-29T16:35:44.620Z,4.42
2019-01-29T16:38:13.377Z,4.08
2019-01-29T16:40:46.666Z,4.23
2019-01-29T16:43:15.216Z,4.92
2019-01-29T16:45:43.648Z,3.60
2019-01-29T16:48:12.312Z,4.42
2019-01-29T16:51:00.115Z,3.93
2019-01-29T16:53:28.537Z,5.73
2019-01-29T16:55:56.968Z,3.60
2019-01-29T16:58:26.219Z,4.12
2019-01-29T17:00:54.915Z,4.72
2019-01-29T17:03:23.333Z,5.87
2019-01-29T17:05:51.900Z,8.30
2019-01-29T17:08:20.461Z,8.35
2019-01-29T17:10:49.028Z,6.78
2019-01-29T17:13:17.704Z,7.12
2019-01-29T17:15:46.381Z,8.33
2019-01-29T17:18:14.932Z,7.97
2019-01-29T17:20:45.141Z,8.25
2019-01-29T17:23:13.736Z,8.50
2019-01-29T17:25:42.237Z,10.18
2019-01-29T17:28:10.796Z,10.70
2019-01-29T17:30:41.730Z,13.80
2019-01-29T17:33:11.408Z,9.68
2019-01-29T17:35:40.470Z,16.00
2019-01-29T17:38:09.034Z,16.12
2019-01-29T17:40:37.869Z,14.68
2019-01-29T17:43:07.236Z,16.93
2019-01-29T17:45:41.669Z,19.35
2019-01-29T17:48:10.325Z,22.30
2019-01-29T17:50:44.101Z,22.13
2019-01-29T17:53:12.588Z,25.57
2019-01-29T17:55:42.465Z,24.82
2019-01-29T17:58:11.724Z,23.85
2019-01-29T18:00:42.026Z,25.32
2019-01-29T18:03:10.612Z,32.28
2019-01-29T18:05:39.274Z,21.70
2019-01-29T18:08:19.477Z,19.98
2019-01-29T18:10:48.362Z,24.80
2019-01-29T18:13:17.116Z,23.20
2019-01-29T18:15:45.780Z,15.25
2019-01-29T18:18:14.340Z,12.37
2019-01-29T18:20:43.098Z,11.48
2019-01-29T18:23:11.877Z,11.55
2019-01-29T18:25:40.638Z,45.33
2019-01-29T18:28:09.136Z,26.25
2019-01-29T18:30:37.996Z,16.85
2019-01-29T18:33:06.969Z,9.00
2019-01-29T18:35:35.744Z,9.80
2019-01-29T18:38:04.716Z,10.32
2019-01-29T18:40:36.588Z,9.23
2019-01-29T18:43:05.709Z,11.97
2019-01-29T18:45:34.574Z,9.50
2019-01-29T18:48:03.362Z,10.35
2019-01-29T18:50:32.356Z,10.40
2019-01-29T18:53:01.412Z,9.45
2019-01-29T18:55:29.969Z,13.03
2019-01-29T18:57:58.740Z,10.23
2019-01-29T19:00:27.929Z,9.13
2019-01-29T19:02:57.240Z,9.23
2019-01-29T19:05:26.939Z,10.00
2019-01-29T19:07:55.833Z,9.40
2019-01-29T19:10:25.008Z,9.18
2019-01-29T19:12:53.918Z,8.58
2019-01-29T19:15:25.104Z,8.28
2019-01-29T19:17:55.018Z,8.93
2019-01-29T19:20:25.495Z,7.62
2019-01-29T19:22:55.152Z,8.98
2019-01-29T19:25:24.793Z,8.60
2019-01-29T19:27:54.741Z,7.80
2019-01-29T19:30:33.709Z,6.47
2019-01-29T19:33:03.402Z,8.03
2019-01-29T19:35:33.205Z,7.10
2019-01-29T19:38:02.925Z,6.60
2019-01-29T19:40:32.137Z,5.40
2019-01-29T19:43:01.707Z,5.95
2019-01-29T19:45:35.507Z,7.08
2019-01-29T19:48:05.797Z,5.45
2019-01-29T19:50:35.134Z,6.22
2019-01-29T19:53:04.853Z,6.58
2019-01-29T19:55:34.802Z,6.53
2019-01-29T19:58:09.274Z,5.25
2019-01-29T20:00:59.476Z,5.72
2019-01-29T20:03:28.892Z,6.15
2019-01-29T20:05:58.672Z,6.22
2019-01-29T20:08:28.502Z,6.00
2019-01-29T20:10:57.824Z,6.10
2019-01-29T20:13:27.208Z,6.72
2019-01-29T20:15:56.700Z,6.58
2019-01-29T20:18:26.208Z,6.15
2019-01-29T20:20:55.371Z,7.12
2019-01-29T20:23:24.433Z,7.30
2019-01-29T20:25:53.188Z,6.80
2019-01-29T20:28:21.945Z,7.67
2019-01-29T20:30:50.615Z,6.83
2019-01-29T20:33:19.180Z,6.97
2019-01-29T20:35:47.598Z,7.17
2019-01-29T20:38:16.091Z,6.87
2019-01-29T20:40:44.506Z,8.45
2019-01-29T20:43:12.916Z,7.80
2019-01-29T20:45:41.364Z,8.35
2019-01-29T20:48:09.918Z,9.58
2019-01-29T20:50:38.681Z,11.63
2019-01-29T20:53:07.138Z,8.35
2019-01-29T20:55:35.784Z,8.28
2019-01-29T20:58:05.244Z,9.90
2019-01-29T21:00:36.307Z,8.30
2019-01-29T21:03:05.061Z,9.05
2019-01-29T21:05:33.620Z,10.93
2019-01-29T21:08:02.050Z,10.03
2019-01-29T21:10:30.530Z,9.68
2019-01-29T21:12:58.962Z,9.18
2019-01-29T21:15:37.723Z,8.98
2019-01-29T21:17:58.544Z,14.00
2019-01-29T21:20:29.301Z,9.53
2019-01-29T21:22:58.165Z,9.68
2019-01-29T21:25:26.661Z,8.85
2019-01-29T21:27:55.224Z,8.43
2019-01-29T21:30:44.056Z,8.38
2019-01-29T21:33:12.588Z,8.23
2019-01-29T21:35:41.012Z,8.30
2019-01-29T21:38:09.561Z,8.65
2019-01-29T21:40:38.156Z,8.40
2019-01-29T21:43:06.568Z,9.03
2019-01-29T21:45:34.992Z,8.18
2019-01-29T21:48:03.475Z,7.50
2019-01-29T21:50:34.107Z,8.15
2019-01-29T21:53:02.534Z,9.05
2019-01-29T21:55:31.056Z,7.97
2019-01-29T21:57:59.653Z,14.00
2019-01-29T22:00:36.717Z,9.70
2019-01-29T22:03:05.985Z,8.50
2019-01-29T22:05:35.645Z,8.18
2019-01-29T22:08:05.604Z,7.80
2019-01-29T22:10:34.028Z,7.92
2019-01-29T22:13:02.520Z,7.95
2019-01-29T22:15:30.947Z,7.80
2019-01-29T22:17:59.361Z,9.58
2019-01-29T22:20:27.798Z,7.45
2019-01-29T22:22:56.776Z,8.75
2019-01-29T22:25:25.747Z,7.35
2019-01-29T22:27:54.165Z,7.58
2019-01-29T22:30:30.924Z,7.42
2019-01-29T22:32:59.337Z,7.80
2019-01-29T22:35:27.760Z,7.60
2019-01-29T22:37:56.176Z,7.72
2019-01-29T22:40:27.108Z,7.22
2019-01-29T22:42:56.196Z,6.87
2019-01-29T22:45:24.617Z,7.42
2019-01-29T22:47:53.035Z,7.08
2019-01-29T22:50:29.481Z,6.80
2019-01-29T22:52:57.973Z,7.15
2019-01-29T22:55:26.467Z,7.53
2019-01-29T22:57:55.053Z,6.75
2019-01-29T23:00:52.128Z,6.35
2019-01-29T23:03:23.289Z,7.12
2019-01-29T23:06:03.113Z,6.03
2019-01-29T23:08:31.798Z,7.12
2019-01-29T23:11:00.999Z,6.45
2019-01-29T23:13:29.407Z,6.72
2019-01-29T23:15:57.843Z,6.65
2019-01-29T23:18:26.252Z,7.55
2019-01-29T23:20:54.676Z,6.50
2019-01-29T23:23:23.090Z,6.92
2019-01-29T23:25:51.507Z,7.12
2019-01-29T23:28:19.948Z,7.78
2019-01-29T23:30:48.672Z,8.68
2019-01-29T23:33:17.100Z,7.10
2019-01-29T23:35:45.529Z,7.03
2019-01-29T23:38:13.960Z,7.28
2019-01-29T23:40:42.495Z,7.72
2019-01-29T23:43:10.877Z,6.90
2019-01-29T23:45:39.300Z,7.72
2019-01-29T23:48:07.716Z,6.85
2019-01-29T23:50:36.141Z,7.22
2019-01-29T23:53:04.625Z,8.03
2019-01-29T23:55:33.052Z,6.85
2019-01-29T23:58:01.479Z,7.53
